createdAt,value
2022-12-16T00:01:08.114Z,51.63
2022-12-16T00:03:35.972Z,51.05
2022-12-16T00:06:05.174Z,48.97
2022-12-16T00:08:33.619Z,52.17
2022-12-16T00:11:01.220Z,50.53
2022-12-16T00:13:28.970Z,48.20
2022-12-16T00:15:55.892Z,47.90
2022-12-16T00:18:22.671Z,44.03
2022-12-16T00:20:52.972Z,50.40
2022-12-16T00:23:22.399Z,46.88
2022-12-16T00:25:49.331Z,46.63
2022-12-16T00:28:17.583Z,45.05
2022-12-16T00:30:45.356Z,41.53
2022-12-16T00:33:13.057Z,47.13
2022-12-16T00:35:44.518Z,40.10
2022-12-16T00:38:13.009Z,44.80
2022-12-16T00:40:39.921Z,49.00
2022-12-16T00:43:06.664Z,45.38
2022-12-16T00:45:33.457Z,45.42
2022-12-16T00:48:00.181Z,46.30
2022-12-16T00:50:27.019Z,43.30
2022-12-16T00:52:54.031Z,47.35
2022-12-16T00:55:21.679Z,48.10
2022-12-16T00:57:48.493Z,48.22
2022-12-16T01:00:16.298Z,41.47
2022-12-16T01:02:45.150Z,44.50
2022-12-16T01:05:13.285Z,46.75
2022-12-16T01:07:40.267Z,49.35
2022-12-16T01:10:07.969Z,50.90
2022-12-16T01:12:36.149Z,46.78
2022-12-16T01:15:03.735Z,41.55
2022-12-16T01:17:30.423Z,49.72
2022-12-16T01:19:57.147Z,49.15
2022-12-16T01:22:23.858Z,46.85
2022-12-16T01:24:50.597Z,50.13
2022-12-16T01:27:17.614Z,45.35
2022-12-16T01:29:44.610Z,45.38
2022-12-16T01:32:14.719Z,46.08
2022-12-16T01:34:42.489Z,49.35
2022-12-16T01:37:14.415Z,46.50
2022-12-16T01:39:41.099Z,46.28
2022-12-16T01:42:16.056Z,49.75
2022-12-16T01:44:43.956Z,41.33
2022-12-16T01:47:16.477Z,44.00
2022-12-16T01:49:48.947Z,49.40
2022-12-16T01:52:22.119Z,46.60
2022-12-16T01:54:57.835Z,45.78
2022-12-16T01:57:32.963Z,41.92
2022-12-16T02:00:01.268Z,46.85
2022-12-16T02:02:28.094Z,45.58
2022-12-16T02:05:13.550Z,44.15
2022-12-16T02:07:40.247Z,44.50
2022-12-16T02:10:07.573Z,47.50
2022-12-16T02:13:12.892Z,42.03
2022-12-16T02:16:07.564Z,43.20
2022-12-16T02:18:48.670Z,44.80
2022-12-16T02:21:40.291Z,51.45
2022-12-16T02:24:45.428Z,38.45
2022-12-16T02:27:34.205Z,43.17
2022-12-16T02:30:08.840Z,40.70
2022-12-16T02:32:57.478Z,42.80
2022-12-16T02:35:33.761Z,42.70
2022-12-16T02:38:20.742Z,45.30
2022-12-16T02:41:03.869Z,42.53
2022-12-16T02:43:36.426Z,43.30
2022-12-16T02:46:04.430Z,50.13
2022-12-16T02:48:31.101Z,38.97
2022-12-16T02:50:57.796Z,43.10
2022-12-16T02:53:24.520Z,40.58
2022-12-16T02:56:13.055Z,37.88
2022-12-16T02:58:45.896Z,43.78
2022-12-16T03:01:36.341Z,42.92
2022-12-16T03:04:12.293Z,37.72
2022-12-16T03:06:41.579Z,44.30
2022-12-16T03:09:11.338Z,43.72
2022-12-16T03:11:40.387Z,41.30
2022-12-16T03:14:07.501Z,34.55
2022-12-16T03:16:34.827Z,43.90
2022-12-16T03:19:04.118Z,38.80
2022-12-16T03:21:34.809Z,37.22
2022-12-16T03:24:03.885Z,38.10
2022-12-16T03:26:41.066Z,35.20
2022-12-16T03:29:32.865Z,35.20
2022-12-16T03:32:06.803Z,38.03
2022-12-16T03:34:47.878Z,36.30
2022-12-16T03:37:14.929Z,35.53
2022-12-16T03:39:45.093Z,33.67
2022-12-16T03:42:13.610Z,36.08
2022-12-16T03:44:40.314Z,33.05
2022-12-16T03:47:07.092Z,35.25
2022-12-16T03:49:33.821Z,35.08
2022-12-16T03:52:00.899Z,31.48
2022-12-16T03:54:27.610Z,33.22
2022-12-16T03:56:54.393Z,38.22
2022-12-16T03:59:21.065Z,31.92
2022-12-16T04:01:48.061Z,34.85
2022-12-16T04:04:14.828Z,33.17
2022-12-16T04:06:41.515Z,39.53
2022-12-16T04:09:08.781Z,34.28
2022-12-16T04:11:54.140Z,34.50
2022-12-16T04:14:53.389Z,30.35
2022-12-16T04:17:39.190Z,29.92
2022-12-16T04:20:24.935Z,30.52
2022-12-16T04:23:10.170Z,38.92
2022-12-16T04:25:37.187Z,31.23
2022-12-16T04:28:03.966Z,24.23
2022-12-16T04:30:34.632Z,32.28
2022-12-16T04:33:22.790Z,27.92
2022-12-16T04:36:08.249Z,27.60
2022-12-16T04:38:53.382Z,29.20
2022-12-16T04:44:24.507Z,24.83
2022-12-16T04:47:09.802Z,20.50
2022-12-16T04:52:40.422Z,21.42
2022-12-16T04:55:26.595Z,24.15
2022-12-16T04:58:17.536Z,25.63
2022-12-16T05:01:03.966Z,23.55
2022-12-16T05:03:49.430Z,21.58
2022-12-16T05:06:34.952Z,24.65
2022-12-16T05:09:20.005Z,26.45
2022-12-16T05:12:05.369Z,21.65
2022-12-16T05:14:50.618Z,22.77
2022-12-16T05:20:21.761Z,23.02
2022-12-16T05:23:06.842Z,24.20
2022-12-16T05:25:52.169Z,23.58
2022-12-16T05:28:37.518Z,22.42
2022-12-16T05:31:23.285Z,20.88
2022-12-16T05:34:08.595Z,22.80
2022-12-16T05:36:53.798Z,21.42
2022-12-16T05:42:24.941Z,18.20
2022-12-16T05:45:30.156Z,20.58
2022-12-16T05:48:15.786Z,20.20
2022-12-16T05:51:01.024Z,20.20
2022-12-16T05:56:31.608Z,21.08
2022-12-16T05:59:17.447Z,19.95
2022-12-16T06:02:02.893Z,23.05
2022-12-16T06:04:48.171Z,24.00
2022-12-16T06:10:19.312Z,21.77
2022-12-16T06:13:05.939Z,23.13
2022-12-16T06:15:51.494Z,24.98
2022-12-16T06:18:36.797Z,28.13
2022-12-16T06:21:22.784Z,25.70
2022-12-16T06:24:08.280Z,28.25
2022-12-16T06:26:53.779Z,25.83
2022-12-16T06:29:39.169Z,24.60
2022-12-16T06:32:24.309Z,22.40
2022-12-16T06:37:54.769Z,26.23
2022-12-16T06:40:40.288Z,31.05
2022-12-16T06:43:25.912Z,30.38
2022-12-16T06:46:11.291Z,35.60
2022-12-16T06:48:56.769Z,32.58
2022-12-16T06:51:42.083Z,34.83
2022-12-16T06:57:12.937Z,34.92
2022-12-16T06:59:58.013Z,41.85
2022-12-16T07:02:43.457Z,47.90
2022-12-16T07:05:28.725Z,50.53
2022-12-16T07:11:15.313Z,79.93
2022-12-16T07:14:01.962Z,43.53
2022-12-16T07:16:47.597Z,43.13
2022-12-16T07:19:32.830Z,42.53
2022-12-16T07:25:03.656Z,39.38
2022-12-16T07:27:48.892Z,36.50
2022-12-16T07:33:19.533Z,46.15
2022-12-16T07:36:04.781Z,47.42
2022-12-16T07:41:35.582Z,49.60
2022-12-16T07:44:20.910Z,53.30
2022-12-16T07:47:06.477Z,45.85
2022-12-16T07:49:51.696Z,48.28
2022-12-16T07:52:40.484Z,44.28
2022-12-16T07:58:10.823Z,45.50
2022-12-16T08:00:56.030Z,33.72
2022-12-16T08:06:27.136Z,29.17
2022-12-16T08:09:12.376Z,35.63
2022-12-16T08:14:42.958Z,37.20
2022-12-16T08:20:13.609Z,32.55
2022-12-16T08:22:59.565Z,31.30
2022-12-16T08:25:44.945Z,33.47
2022-12-16T08:28:30.165Z,28.13
2022-12-16T08:34:00.850Z,30.98
2022-12-16T08:36:46.082Z,29.75
2022-12-16T08:42:17.214Z,33.38
2022-12-16T08:45:02.691Z,32.00
2022-12-16T08:47:47.841Z,27.15
2022-12-16T08:53:18.340Z,28.58
2022-12-16T08:56:03.628Z,27.33
2022-12-16T08:58:49.071Z,24.23
2022-12-16T09:01:34.774Z,26.65
2022-12-16T09:04:20.171Z,24.58
2022-12-16T09:07:05.586Z,21.75
2022-12-16T09:09:51.074Z,27.35
2022-12-16T09:12:36.531Z,34.40
2022-12-16T09:15:21.859Z,26.35
2022-12-16T09:18:15.167Z,25.60
2022-12-16T09:21:00.540Z,21.08
2022-12-16T09:23:46.058Z,18.58
2022-12-16T09:26:31.496Z,19.33
2022-12-16T09:29:16.886Z,18.88
2022-12-16T09:32:02.446Z,22.20
2022-12-16T09:34:47.612Z,22.88
2022-12-16T09:40:18.373Z,22.42
2022-12-16T09:43:04.014Z,25.90
2022-12-16T09:46:02.911Z,20.88
2022-12-16T09:49:07.298Z,17.08
2022-12-16T09:51:53.521Z,18.67
2022-12-16T09:54:39.496Z,20.10
2022-12-16T09:57:26.093Z,20.70
2022-12-16T10:00:19.565Z,13.88
2022-12-16T10:03:09.240Z,24.35
2022-12-16T10:06:07.540Z,18.30
2022-12-16T10:08:58.561Z,18.10
2022-12-16T10:12:14.347Z,23.67
2022-12-16T10:15:09.166Z,21.15
2022-12-16T10:17:55.416Z,20.20
2022-12-16T10:20:57.686Z,18.65
2022-12-16T10:24:13.390Z,21.58
2022-12-16T10:27:23.220Z,21.67
2022-12-16T10:30:08.511Z,26.77
2022-12-16T10:33:02.596Z,23.27
2022-12-16T10:36:08.719Z,26.85
2022-12-16T10:39:03.763Z,15.18
2022-12-16T10:41:53.193Z,17.17
2022-12-16T10:44:43.103Z,18.38
2022-12-16T10:47:29.884Z,24.33
2022-12-16T10:50:15.402Z,24.05
2022-12-16T10:53:16.728Z,26.23
2022-12-16T10:56:14.114Z,22.08
2022-12-16T10:59:09.657Z,19.30
2022-12-16T11:04:47.654Z,12.73
2022-12-16T11:08:01.961Z,15.10
2022-12-16T11:11:02.153Z,16.75
2022-12-16T11:13:53.054Z,13.80
2022-12-16T11:16:38.462Z,10.02
2022-12-16T11:19:24.158Z,9.95
2022-12-16T11:22:09.542Z,10.15
2022-12-16T11:27:43.705Z,11.55
2022-12-16T11:30:32.141Z,13.52
2022-12-16T11:33:19.613Z,13.40
2022-12-16T11:36:10.446Z,12.18
2022-12-16T11:39:00.264Z,11.10
2022-12-16T11:41:52.280Z,15.63
2022-12-16T11:44:42.303Z,14.00
2022-12-16T11:48:03.362Z,14.40
2022-12-16T11:50:51.612Z,15.88
2022-12-16T11:53:39.919Z,18.27
2022-12-16T11:56:25.846Z,25.13
2022-12-16T11:59:14.642Z,17.17
2022-12-16T12:02:11.037Z,28.88
2022-12-16T12:04:56.416Z,19.25
2022-12-16T12:07:49.608Z,15.50
2022-12-16T12:10:53.230Z,18.15
2022-12-16T12:13:46.743Z,17.23
2022-12-16T12:16:36.531Z,16.50
2022-12-16T12:19:31.868Z,18.00
2022-12-16T12:22:20.652Z,19.65
2022-12-16T12:25:22.254Z,26.42
2022-12-16T12:28:34.200Z,31.30
2022-12-16T12:31:28.747Z,46.30
2022-12-16T12:34:19.927Z,26.38
2022-12-16T12:37:18.811Z,17.95
2022-12-16T12:40:15.240Z,19.25
2022-12-16T12:43:09.619Z,27.25
2022-12-16T12:46:17.229Z,17.88
2022-12-16T12:49:16.958Z,15.90
2022-12-16T12:52:27.859Z,16.90
2022-12-16T12:55:42.332Z,25.00
2022-12-16T12:58:29.687Z,12.52
2022-12-16T13:01:16.576Z,11.02
2022-12-16T13:04:07.518Z,12.30
2022-12-16T13:06:54.326Z,14.90
2022-12-16T13:09:48.225Z,10.18
2022-12-16T13:12:33.684Z,9.73
2022-12-16T13:15:45.367Z,7.57
2022-12-16T13:18:32.168Z,12.27
2022-12-16T13:21:17.934Z,14.35
2022-12-16T13:24:04.175Z,24.63
2022-12-16T13:26:52.166Z,16.58
2022-12-16T13:29:51.360Z,13.88
2022-12-16T13:32:40.005Z,12.48
2022-12-16T13:35:28.498Z,14.32
2022-12-16T13:38:35.866Z,23.23
2022-12-16T13:41:45.470Z,15.30
2022-12-16T13:44:31.834Z,10.15
2022-12-16T13:47:17.112Z,10.20
2022-12-16T13:50:07.691Z,11.95
2022-12-16T13:52:59.199Z,11.02
2022-12-16T13:55:49.484Z,12.73
2022-12-16T13:58:45.391Z,14.63
2022-12-16T14:01:32.718Z,9.70
2022-12-16T14:04:18.676Z,10.27
2022-12-16T14:07:04.069Z,9.85
2022-12-16T14:09:57.488Z,10.88
2022-12-16T14:13:02.837Z,9.48
2022-12-16T14:16:05.541Z,17.83
2022-12-16T14:19:23.594Z,10.45
2022-12-16T14:22:13.585Z,10.68
2022-12-16T14:24:59.489Z,12.95
2022-12-16T14:27:44.866Z,13.50
2022-12-16T14:30:40.002Z,14.00
2022-12-16T14:33:40.250Z,10.45
2022-12-16T14:36:39.421Z,11.43
2022-12-16T14:39:29.479Z,13.98
2022-12-16T14:42:14.649Z,11.55
2022-12-16T14:47:48.738Z,9.43
2022-12-16T14:50:45.334Z,12.93
2022-12-16T14:53:42.824Z,14.27
2022-12-16T14:56:39.955Z,12.98
2022-12-16T14:59:35.866Z,12.95
2022-12-16T15:02:57.345Z,13.30
2022-12-16T15:05:49.502Z,10.50
2022-12-16T15:08:35.375Z,11.02
2022-12-16T15:11:22.745Z,10.02
2022-12-16T15:14:12.416Z,11.10
2022-12-16T15:16:58.044Z,10.77
2022-12-16T15:19:43.965Z,9.50
2022-12-16T15:22:35.836Z,10.68
2022-12-16T15:25:21.864Z,10.20
2022-12-16T15:28:14.996Z,11.23
2022-12-16T15:31:07.356Z,9.70
2022-12-16T15:33:57.235Z,10.48
2022-12-16T15:36:47.084Z,10.45
2022-12-16T15:39:48.796Z,11.27
2022-12-16T15:42:37.298Z,9.30
2022-12-16T15:45:23.565Z,14.25
2022-12-16T15:48:09.848Z,22.80
2022-12-16T15:51:12.031Z,20.83
2022-12-16T15:53:58.153Z,20.33
2022-12-16T15:57:01.452Z,17.92
2022-12-16T16:00:10.037Z,19.00
2022-12-16T16:02:55.451Z,12.45
2022-12-16T16:05:42.830Z,12.00
2022-12-16T16:08:29.918Z,9.45
2022-12-16T16:11:15.326Z,11.75
2022-12-16T16:14:08.373Z,14.32
2022-12-16T16:16:57.848Z,11.63
2022-12-16T16:22:31.419Z,16.90
2022-12-16T16:25:16.734Z,15.40
2022-12-16T16:28:02.418Z,14.55
2022-12-16T16:30:47.683Z,15.77
2022-12-16T16:33:33.358Z,17.58
2022-12-16T16:36:19.049Z,11.60
2022-12-16T16:39:04.628Z,13.00
2022-12-16T16:41:50.032Z,14.43
2022-12-16T16:44:35.312Z,17.67
2022-12-16T16:47:20.790Z,16.55
2022-12-16T16:50:06.681Z,15.25
2022-12-16T16:52:51.945Z,15.48
2022-12-16T16:55:42.341Z,21.35
2022-12-16T16:58:47.315Z,23.77
2022-12-16T17:01:35.056Z,43.20
2022-12-16T17:04:20.838Z,33.58
2022-12-16T17:07:06.437Z,22.05
2022-12-16T17:09:52.138Z,27.50
2022-12-16T17:12:43.079Z,23.70
2022-12-16T17:15:38.377Z,22.25
2022-12-16T17:18:24.513Z,34.60
2022-12-16T17:21:10.689Z,45.38
2022-12-16T17:23:56.337Z,80.45
2022-12-16T17:26:42.177Z,31.38
2022-12-16T17:29:36.402Z,30.27
2022-12-16T17:32:21.750Z,28.08
2022-12-16T17:35:07.153Z,30.17
2022-12-16T17:37:52.611Z,25.58
2022-12-16T17:40:55.042Z,29.02
2022-12-16T17:43:57.082Z,23.42
2022-12-16T17:46:42.703Z,23.38
2022-12-16T17:49:28.295Z,23.67
2022-12-16T17:52:13.862Z,23.35
2022-12-16T17:54:59.501Z,25.35
2022-12-16T17:57:44.860Z,22.27
2022-12-16T18:00:30.997Z,25.50
2022-12-16T18:03:16.533Z,25.02
2022-12-16T18:06:02.089Z,20.65
2022-12-16T18:08:47.553Z,29.10
2022-12-16T18:11:38.414Z,23.30
2022-12-16T18:14:23.917Z,20.10
2022-12-16T18:17:09.052Z,25.13
2022-12-16T18:22:39.387Z,29.20
2022-12-16T18:25:24.828Z,26.05
2022-12-16T18:28:10.037Z,27.30
2022-12-16T18:33:40.973Z,23.10
2022-12-16T18:39:11.433Z,22.25
2022-12-16T18:42:01.368Z,23.08
2022-12-16T18:44:46.917Z,20.40
2022-12-16T18:47:32.203Z,19.70
2022-12-16T18:50:20.096Z,22.75
2022-12-16T18:53:09.630Z,24.70
2022-12-16T18:55:55.132Z,44.53
2022-12-16T18:58:56.898Z,34.17
2022-12-16T19:01:42.415Z,23.80
2022-12-16T19:04:27.700Z,19.27
2022-12-16T19:09:58.681Z,21.65
2022-12-16T19:12:44.067Z,27.42
2022-12-16T19:15:29.490Z,22.27
2022-12-16T19:18:15.246Z,22.77
2022-12-16T19:21:01.277Z,27.50
2022-12-16T19:23:46.830Z,22.90
2022-12-16T19:26:32.347Z,23.23
2022-12-16T19:29:17.737Z,23.58
2022-12-16T19:32:03.515Z,27.27
2022-12-16T19:34:49.035Z,24.25
2022-12-16T19:37:34.683Z,26.75
2022-12-16T19:40:20.320Z,24.70
2022-12-16T19:43:05.963Z,21.35
2022-12-16T19:45:51.388Z,23.08
2022-12-16T19:48:37.193Z,21.88
2022-12-16T19:51:22.862Z,24.75
2022-12-16T19:54:08.504Z,25.33
2022-12-16T19:56:57.979Z,24.35
2022-12-16T19:59:43.399Z,21.67
2022-12-16T20:02:30.427Z,26.08
2022-12-16T20:05:16.196Z,28.95
2022-12-16T20:08:01.694Z,25.80
2022-12-16T20:10:47.134Z,28.50
2022-12-16T20:13:32.907Z,24.17
2022-12-16T20:16:26.968Z,32.95
2022-12-16T20:19:13.224Z,28.85
2022-12-16T20:25:04.788Z,28.08
2022-12-16T20:27:50.181Z,31.58
2022-12-16T20:30:35.836Z,27.70
2022-12-16T20:33:21.306Z,31.25
2022-12-16T20:36:21.320Z,28.05
2022-12-16T20:39:07.116Z,27.25
2022-12-16T20:41:56.157Z,26.75
2022-12-16T20:44:41.957Z,26.85
2022-12-16T20:47:27.508Z,28.70
2022-12-16T20:50:13.157Z,23.42
2022-12-16T20:52:58.468Z,22.13
2022-12-16T20:55:43.972Z,22.88
2022-12-16T20:58:29.476Z,24.58
2022-12-16T21:01:15.222Z,28.52
2022-12-16T21:04:00.398Z,21.98
2022-12-16T21:09:31.134Z,20.67
2022-12-16T21:12:16.339Z,23.27
2022-12-16T21:17:56.205Z,18.98
2022-12-16T21:20:41.586Z,19.80
2022-12-16T21:23:28.046Z,24.40
2022-12-16T21:26:13.547Z,21.15
2022-12-16T21:28:59.015Z,23.45
2022-12-16T21:31:44.642Z,21.55
2022-12-16T21:34:29.984Z,18.13
2022-12-16T21:37:15.498Z,20.85
2022-12-16T21:40:00.932Z,24.48
2022-12-16T21:42:46.483Z,26.05
2022-12-16T21:45:32.698Z,24.48
2022-12-16T21:48:18.022Z,21.83
2022-12-16T21:51:09.693Z,23.30
2022-12-16T21:53:56.715Z,24.55
2022-12-16T21:56:42.075Z,21.40
2022-12-16T22:02:13.097Z,26.30
2022-12-16T22:04:58.357Z,27.17
2022-12-16T22:07:45.777Z,31.27
2022-12-16T22:10:31.421Z,27.58
2022-12-16T22:13:18.426Z,26.55
2022-12-16T22:16:16.385Z,30.25
2022-12-16T22:19:02.089Z,31.27
2022-12-16T22:21:47.863Z,39.15
2022-12-16T22:24:33.455Z,26.02
2022-12-16T22:27:18.976Z,23.85
2022-12-16T22:30:04.227Z,23.38
2022-12-16T22:33:06.154Z,25.88
2022-12-16T22:35:52.443Z,30.48
2022-12-16T22:38:37.824Z,24.13
2022-12-16T22:41:23.212Z,23.02
2022-12-16T22:44:08.396Z,24.92
2022-12-16T22:46:56.209Z,20.63
2022-12-16T22:49:41.502Z,21.52
2022-12-16T22:55:12.063Z,19.33
2022-12-16T22:57:57.223Z,20.50
2022-12-16T23:03:34.482Z,20.73
2022-12-16T23:06:19.721Z,21.05
2022-12-16T23:11:56.425Z,18.75
2022-12-16T23:15:02.376Z,18.63
2022-12-16T23:17:47.704Z,21.27
2022-12-16T23:20:33.370Z,18.63
2022-12-16T23:23:18.855Z,16.52
2022-12-16T23:26:17.194Z,18.33
2022-12-16T23:29:02.749Z,15.32
2022-12-16T23:31:48.433Z,18.02
2022-12-16T23:34:34.114Z,19.10
2022-12-16T23:37:19.614Z,13.73
2022-12-16T23:40:05.273Z,14.07
2022-12-16T23:42:50.499Z,13.90
2022-12-16T23:45:35.961Z,13.55
2022-12-16T23:48:28.509Z,11.38
2022-12-16T23:51:14.421Z,11.68
2022-12-16T23:53:59.971Z,13.57
2022-12-16T23:56:45.430Z,13.18
2022-12-16T23:59:30.913Z,11.27
